レイキャビク/ケフラヴィーク の空港の天気 - METARとTAF

ケフラヴィーク国際空港 ( BIKF / KEF ) - アイスランド ケプラヴィーク
飛行場実況気象(Metar)
観測時間02/17 14:30 GMT (02/17 14:30 UTC)
風向・風速北北東 8m/s
視程9000m
天気現象弱い雨 弱い雪
全天の4割程度の雲 雲底高度 60m
全天の8割程度の雲 雲底高度 460m
全天の8割程度の雲 雲底高度 1070m
気温0℃
湿度100%
気圧994hPa
METARBIKF 171430Z 03015KT 9000 -RASN SCT002 BKN015 BKN035 00/00 Q0994 R01/550075
過去の天気等 Google飛行場航空写真 Wunderground天気予報

過去48時間のMETAR

飛行場予報(TAF)
発表時間: 2/17 13:21 GMT (2/17 13:21 UTC)
予報対象時間: 17日15時 GMT ~ 18日15時 GMT
風向・風速北北東 9m/s
視程10km以上
全天の8割程度の雲 雲底高度 760m
17日15時 GMT ~ 17日24時 GMT に 確率 40% で一時的に
視程5000m
天気現象弱い雨雪 もや
全天の8割程度の雲 雲底高度 150m
全天を覆う雲 雲底高度 910m
18日0時 GMT ~ 18日3時 GMT に徐々に
風向・風速北 10m/s 瞬間風速 16m/s
全天の4割程度の雲 雲底高度 1370m
18日9時 GMT ~ 18日12時 GMT に徐々に
風向・風速北北東 9m/s
TAF BIKF 171321Z 1715/1815 02018KT 9999 BKN025 TX03/1715Z TNM01/1803Z
PROB40 TEMPO 1715/1800 5000 -RASN BR BKN005 OVC030
BECMG 1800/1803 01020G32KT SCT045
BECMG 1809/1812 02018KT